Time;durP1;ratioP1;P1;durP2;ratioP2;P2;SDS_P1;SDS_P2;PMS_P1;PMS_P2;Temp;Humidity;BMP_temperature;BMP_pressure;BME280_temperature;BME280_humidity;BME280_pressure;Samples;Min_cycle;Max_cycle;Signal;HPM_P1;HPM_P2
2023/10/04 03:28:18;;;;;;;;;;;;;;;12.07;100.00;102512.50;4941144;29;19947;-96
2023/10/04 03:30:46;;;;;;;;;;;;;;;12.05;100.00;102508.03;4958835;29;19919;-96
2023/10/04 03:41:30;;;;;;;;;;;;;;;11.90;100.00;102526.50;4981375;23;19926;-96
2023/10/04 03:54:48;;;;;;;;;;;;;;;11.79;100.00;102515.56;5511555;23;19928;-96
2023/10/04 03:57:13;;;;;;;;;;;;;;;11.74;100.00;102499.66;4923314;29;20016;-96
2023/10/04 04:48:08;;;;;;;;;;;;;;;11.31;100.00;102495.06;5033035;23;19923;-96
2023/10/04 04:54:18;;;;;;;;;;;;;;;11.27;100.00;102490.56;4940517;29;19931;-96
2023/10/04 04:57:07;;;;;;;;;;;;;;;11.22;100.00;102495.53;4900823;29;19952;-96
2023/10/04 04:59:57;;;;;;;;;;;;;;;11.20;100.00;102496.31;4895649;29;19904;-96
2023/10/04 05:03:04;;;;;;;;;;;;;;;11.18;100.00;102492.69;4885725;29;19920;-96
2023/10/04 05:13:28;;;;;;;;;;;;;;;;;;;;;
2023/10/04 05:19:13;;;;;;;;;;;;;;;11.04;100.00;102529.47;4959775;28;19914;-96
2023/10/04 05:21:50;;;;;;;;;;;;;;;11.01;100.00;102551.88;4942700;29;19910;-96
2023/10/04 05:24:31;;;;;;;;;;;;;;;11.00;100.00;102544.91;4942241;29;19942;-96
2023/10/04 05:27:21;;;;;;;;;;;;;;;10.99;100.00;102545.72;4941850;29;20001;-96
2023/10/04 05:33:00;;;;;;;;;;;;;;;10.96;100.00;102539.53;4919552;29;19955;-96
2023/10/04 05:39:17;;;;;;;;;;;;;;;10.95;100.00;102531.63;4920073;29;20003;-96
2023/10/04 05:42:02;;;;;;;;;;;;;;;10.92;100.00;102540.19;4885276;29;19940;-96
2023/10/04 05:44:41;;;;;;;;;;;;;;;10.91;100.00;102548.84;4884724;29;19916;-96
2023/10/04 05:47:38;;;;;;;;;;;;;;;10.90;100.00;102551.38;4901137;29;19904;-96
2023/10/04 07:05:39;;;;;;;;;;;;;;;;;;;;;
2023/10/04 07:08:35;;;;;;;;;;;;;;;;;;;;;
2023/10/04 07:11:24;;;;;;;;;;;;;;;;;;;;;
2023/10/04 07:14:07;;;;;;;;;;;;;;;11.16;100.00;102594.38;4921255;29;19955;-96
2023/10/04 07:16:35;;;;;;;;;;;;;;;11.22;100.00;102596.41;4905042;29;20399;-96
2023/10/04 07:19:09;;;;;;;;;;;;;;;11.35;100.00;102600.50;4903865;29;19907;-96
2023/10/04 07:21:37;;;;;;;;;;;;;;;11.34;100.00;102602.25;4905632;29;19904;-96
2023/10/04 07:24:06;;;;;;;;;;;;;;;11.38;100.00;102605.88;4905234;29;19983;-96
2023/10/04 07:27:10;;;;;;;;;;;;;;;;;;;;;
2023/10/04 07:30:07;;;;;;;;;;;;;;;11.55;100.00;102610.19;4921417;29;19935;-96
2023/10/04 07:33:05;;;;;;;;;;;;;;;;;;;;;
2023/10/04 07:36:14;;;;;;;;;;;;;;;;;;;;;
2023/10/04 07:38:45;;;;;;;;;;;;;;;11.64;100.00;102615.88;4921605;29;19947;-96
2023/10/04 07:41:49;;;;;;;;;;;;;;;11.70;100.00;102617.84;4921447;29;19904;-96
2023/10/04 07:44:47;;;;;;;;;;;;;;;11.77;100.00;102614.72;4918825;29;19923;-96
2023/10/04 07:47:17;;;;;;;;;;;;;;;11.85;100.00;102622.94;4917924;29;19920;-96
2023/10/04 07:49:49;;;;;;;;;;;;;;;11.93;100.00;102628.50;4920188;29;19975;-96
2023/10/04 07:52:37;;;;;;;;;;;;;;;12.04;100.00;102626.44;4919647;29;19944;-96
2023/10/04 07:55:09;;;;;;;;;;;;;;;12.10;100.00;102632.81;4903600;29;19916;-96
2023/10/04 07:58:06;;;;;;;;;;;;;;;12.19;100.00;102637.56;4905070;29;19914;-96
2023/10/04 08:03:36;;;;;;;;;;;;;;;12.30;100.00;102641.59;4915518;29;19951;-96
2023/10/04 08:06:10;;;;;;;;;;;;;;;12.39;100.00;102642.84;4903159;29;19923;-96
2023/10/04 08:09:23;;;;;;;;;;;;;;;;;;;;;
2023/10/04 08:11:55;;;;;;;;;;;;;;;12.45;100.00;102649.22;4921745;29;19943;-96
2023/10/04 08:17:17;;;;;;;;;;;;;;;12.56;100.00;102644.47;5176539;23;19934;-96
2023/10/04 08:19:45;;;;;;;;;;;;;;;12.66;100.00;102644.06;4941622;29;19925;-96
2023/10/04 08:22:29;;;;;;;;;;;;;;;;;;;;;
2023/10/04 08:28:12;;;;;;;;;;;;;;;12.73;100.00;102657.41;4955698;29;19943;-96
2023/10/04 08:30:50;;;;;;;;;;;;;;;12.76;100.00;102647.97;4958463;29;19925;-96
2023/10/04 08:33:33;;;;;;;;;;;;;;;12.78;100.00;102648.03;4956450;29;19927;-96
2023/10/04 08:36:15;;;;;;;;;;;;;;;12.82;100.00;102655.19;4959115;29;19923;-96
2023/10/04 08:38:53;;;;;;;;;;;;;;;12.87;100.00;102666.75;4927268;29;19899;-96
2023/10/04 08:41:34;;;;;;;;;;;;;;;12.92;100.00;102653.84;4942648;29;19923;-96
2023/10/04 08:44:21;;;;;;;;;;;;;;;12.98;100.00;102659.38;4940178;29;20234;-96
2023/10/04 08:46:55;;;;;;;;;;;;;;;13.03;100.00;102658.75;4925198;29;19934;-96
2023/10/04 08:49:26;;;;;;;;;;;;;;;13.08;100.00;102660.63;4926874;29;19919;-96
2023/10/04 08:57:21;;;;;;;;;;;;;;;13.39;100.00;102662.84;5728469;23;20070;-96
2023/10/04 08:59:49;;;;;;;;;;;;;;;13.34;100.00;102660.06;4939858;29;19923;-96
2023/10/04 10:53:35;;;;;;;;;;;;;;;16.11;85.42;102657.66;4933731;28;19991;-96
2023/10/04 10:56:06;;;;;;;;;;;;;;;16.16;84.74;102658.72;4911313;29;19911;-96
2023/10/04 11:58:34;;;;;;;;;;;;;;;16.96;78.01;102601.22;5859851;23;19990;-96
2023/10/04 12:01:05;;;;;;;;;;;;;;;16.94;76.26;102588.03;4943963;29;19923;-96
2023/10/04 12:03:39;;;;;;;;;;;;;;;16.95;75.80;102583.69;4943505;29;19934;-96
2023/10/04 12:06:38;;;;;;;;;;;;;;;;;;;;;
2023/10/04 12:09:15;;;;;;;;;;;;;;;16.71;79.38;102594.44;4960076;29;19945;-96
2023/10/04 12:12:05;;;;;;;;;;;;;;;16.72;78.07;102599.72;4925675;29;19908;-96
2023/10/04 12:14:50;;;;;;;;;;;;;;;16.60;77.81;102597.66;4938928;29;19951;-96
2023/10/04 12:17:16;;;;;;;;;;;;;;;16.62;78.01;102587.19;4923173;29;19926;-96
2023/10/04 12:19:55;;;;;;;;;;;;;;;16.55;78.78;102580.84;4924115;29;19911;-96
2023/10/04 12:22:36;;;;;;;;;;;;;;;16.54;79.95;102580.81;4925017;29;19920;-96
2023/10/04 12:25:07;;;;;;;;;;;;;;;16.60;79.63;102578.38;4923150;29;19931;-96
2023/10/04 12:28:03;;;;;;;;;;;;;;;16.65;79.53;102582.00;4924332;29;19907;-96
2023/10/04 12:30:55;;;;;;;;;;;;;;;16.64;78.95;102588.09;4899425;29;19915;-96
2023/10/04 12:33:50;;;;;;;;;;;;;;;16.60;79.45;102579.25;4873981;29;19911;-96
2023/10/04 12:36:44;;;;;;;;;;;;;;;16.59;80.39;102576.56;4879479;29;19943;-96
2023/10/04 12:39:38;;;;;;;;;;;;;;;16.66;80.03;102575.88;4904973;29;19912;-96
2023/10/04 12:42:37;;;;;;;;;;;;;;;16.63;81.16;102575.81;4919316;29;19951;-96
2023/10/04 12:45:17;;;;;;;;;;;;;;;16.69;78.98;102573.31;4904244;29;19907;-96
2023/10/04 12:50:49;;;;;;;;;;;;;;;16.64;80.97;102572.31;4921163;29;19934;-96
2023/10/04 12:53:23;;;;;;;;;;;;;;;16.68;80.49;102571.53;4918299;29;19923;-96
2023/10/04 12:56:06;;;;;;;;;;;;;;;;;;;;;
2023/10/04 12:59:04;;;;;;;;;;;;;;;16.63;79.72;102566.16;4957996;29;19946;-96
2023/10/04 13:17:50;;;;;;;;;;;;;;;16.43;80.70;102567.38;4951608;23;19963;-96
2023/10/04 13:20:50;;;;;;;;;;;;;;;16.44;79.89;102567.41;4942890;29;19934;-96
2023/10/04 13:23:41;;;;;;;;;;;;;;;16.40;80.37;102567.31;4958517;29;19919;-96
2023/10/04 13:26:12;;;;;;;;;;;;;;;16.42;80.34;102561.19;4950352;29;19930;-96
2023/10/04 13:28:48;;;;;;;;;;;;;;;16.42;80.71;102555.06;4942966;29;19921;-96
2023/10/04 13:36:37;;;;;;;;;;;;;;;16.52;81.37;102549.19;4959908;28;19914;-96
2023/10/04 13:39:12;;;;;;;;;;;;;;;16.52;80.72;102552.75;4945727;28;19927;-96
2023/10/04 13:41:43;;;;;;;;;;;;;;;16.51;80.06;102553.56;4946359;29;19923;-96
2023/10/04 13:44:18;;;;;;;;;;;;;;;16.46;79.99;102551.66;4944724;29;19909;-96
2023/10/04 13:46:49;;;;;;;;;;;;;;;16.39;79.98;102550.59;4944073;29;19923;-96
2023/10/04 13:49:25;;;;;;;;;;;;;;;16.40;79.80;102544.50;4945266;29;19911;-96
2023/10/04 13:51:58;;;;;;;;;;;;;;;16.34;79.88;102539.09;4944428;29;19929;-96
2023/10/04 13:54:23;;;;;;;;;;;;;;;16.27;80.43;102537.13;4944630;29;19942;-96
2023/10/04 13:59:54;;;;;;;;;;;;;;;16.38;79.47;102540.94;4962131;28;19930;-96
2023/10/04 14:02:25;;;;;;;;;;;;;;;16.36;78.67;102534.75;4945953;29;20265;-96
2023/10/04 14:05:15;;;;;;;;;;;;;;;16.30;79.94;102526.69;4945545;29;19970;-96
2023/10/04 14:07:56;;;;;;;;;;;;;;;16.36;79.25;102531.22;4961716;28;19923;-96
2023/10/04 14:10:33;;;;;;;;;;;;;;;16.38;79.12;102525.16;4962320;28;19923;-96
2023/10/04 14:13:04;;;;;;;;;;;;;;;16.33;78.75;102530.28;4944039;29;19899;-96
2023/10/04 14:15:35;;;;;;;;;;;;;;;16.37;80.00;102526.00;4945714;29;19978;-96
2023/10/04 14:18:15;;;;;;;;;;;;;;;16.50;79.23;102522.84;4945233;28;19903;-96
2023/10/04 14:20:41;;;;;;;;;;;;;;;16.47;79.41;102516.63;4942919;29;19986;-96
2023/10/04 14:23:26;;;;;;;;;;;;;;;16.42;80.01;102512.97;4946227;28;19899;-96
2023/10/04 14:26:13;;;;;;;;;;;;;;;16.44;80.13;102506.03;4929590;29;19923;-96
2023/10/04 14:28:46;;;;;;;;;;;;;;;16.50;79.78;102514.06;4945246;29;19926;-96
2023/10/04 14:31:26;;;;;;;;;;;;;;;16.60;79.37;102509.94;4945638;29;19915;-96
2023/10/04 14:34:04;;;;;;;;;;;;;;;;;;;;;
2023/10/04 14:36:58;;;;;;;;;;;;;;;16.65;79.17;102508.28;4929715;29;19974;-96
2023/10/04 14:40:07;;;;;;;;;;;;;;;;;;;;;
2023/10/04 14:42:45;;;;;;;;;;;;;;;16.61;79.63;102506.44;4904020;29;19956;-96
2023/10/04 14:45:27;;;;;;;;;;;;;;;16.59;79.02;102505.53;4901342;29;19978;-96
2023/10/04 14:48:13;;;;;;;;;;;;;;;16.60;78.45;102500.28;4903280;29;19924;-96
2023/10/04 14:50:59;;;;;;;;;;;;;;;16.51;78.89;102502.66;4905351;29;19916;-96
2023/10/04 14:53:40;;;;;;;;;;;;;;;16.50;79.32;102488.63;4906617;29;20385;-96
2023/10/04 14:56:43;;;;;;;;;;;;;;;16.51;79.20;102493.06;4903620;29;19955;-96
2023/10/04 14:59:25;;;;;;;;;;;;;;;16.41;79.67;102485.78;4913069;29;19923;-96
2023/10/04 15:02:21;;;;;;;;;;;;;;;16.41;80.02;102476.97;4940694;29;19919;-96
2023/10/04 15:04:49;;;;;;;;;;;;;;;16.41;80.36;102480.50;4924001;29;19910;-96
2023/10/04 15:07:40;;;;;;;;;;;;;;;16.40;80.71;102478.72;4909822;29;19927;-96
2023/10/04 15:10:28;;;;;;;;;;;;;;;16.46;80.40;102478.88;4921646;29;19919;-96
2023/10/04 15:13:18;;;;;;;;;;;;;;;16.43;80.90;102476.16;4928454;29;19923;-96
2023/10/04 15:15:56;;;;;;;;;;;;;;;16.42;81.31;102474.38;4924691;29;19951;-96
2023/10/04 15:18:24;;;;;;;;;;;;;;;16.54;80.07;102472.91;4924694;29;19919;-96
2023/10/04 15:20:55;;;;;;;;;;;;;;;16.42;80.40;102473.50;4924368;29;19915;-96
2023/10/04 15:28:41;;;;;;;;;;;;;;;16.30;81.03;102464.44;5217177;23;20099;-96
2023/10/04 15:31:19;;;;;;;;;;;;;;;16.34;80.31;102475.94;4938156;29;19973;-96
2023/10/04 15:37:05;;;;;;;;;;;;;;;16.25;81.23;102480.94;4942660;29;19906;-96
2023/10/04 15:39:36;;;;;;;;;;;;;;;16.27;81.33;102472.25;4932373;29;19923;-96
2023/10/04 15:42:21;;;;;;;;;;;;;;;16.30;80.98;102469.69;4943464;29;19950;-96
2023/10/04 15:45:01;;;;;;;;;;;;;;;16.32;81.40;102467.09;4944498;29;19930;-96
2023/10/04 15:47:42;;;;;;;;;;;;;;;16.31;81.59;102468.84;4941175;29;19954;-96
2023/10/04 15:50:24;;;;;;;;;;;;;;;16.30;81.24;102469.69;4940135;29;19926;-96
2023/10/04 15:52:59;;;;;;;;;;;;;;;16.22;81.93;102462.47;4944126;29;19906;-96
2023/10/04 15:55:33;;;;;;;;;;;;;;;16.22;82.23;102457.19;4942952;29;19903;-96
2023/10/04 15:58:12;;;;;;;;;;;;;;;16.13;82.43;102456.13;4939566;29;19915;-96
2023/10/04 16:03:19;;;;;;;;;;;;;;;16.10;82.61;102456.03;5626958;23;19915;-96
2023/10/04 16:05:53;;;;;;;;;;;;;;;16.05;82.93;102452.41;4942885;29;19907;-96
2023/10/04 16:08:35;;;;;;;;;;;;;;;16.03;83.30;102445.31;4944212;29;19923;-96
2023/10/04 16:11:04;;;;;;;;;;;;;;;15.99;83.79;102449.63;4942396;28;20009;-96
2023/10/04 16:13:53;;;;;;;;;;;;;;;15.97;84.15;102446.94;4958558;28;19923;-96
2023/10/04 16:16:23;;;;;;;;;;;;;;;15.95;84.08;102446.00;4943249;29;19919;-96
2023/10/04 16:18:57;;;;;;;;;;;;;;;15.95;84.14;102447.75;4942084;29;19922;-96
2023/10/04 16:21:31;;;;;;;;;;;;;;;15.94;84.36;102446.84;4926883;29;19906;-96
2023/10/04 16:23:59;;;;;;;;;;;;;;;15.94;84.54;102449.47;4942289;28;19938;-96
2023/10/04 16:26:40;;;;;;;;;;;;;;;15.95;84.48;102453.88;4927330;29;19934;-96
2023/10/04 16:29:28;;;;;;;;;;;;;;;15.93;84.61;102454.69;4942504;28;19926;-96
2023/10/04 16:31:59;;;;;;;;;;;;;;;15.91;84.80;102459.91;4939548;29;19946;-96
2023/10/04 16:34:53;;;;;;;;;;;;;;;15.91;85.15;102459.91;4942930;29;19938;-96
2023/10/04 16:37:23;;;;;;;;;;;;;;;15.90;85.01;102458.13;4924249;29;19919;-96
2023/10/04 16:40:12;;;;;;;;;;;;;;;15.90;85.37;102457.22;4940165;29;19930;-96
2023/10/04 16:43:12;;;;;;;;;;;;;;;15.90;85.64;102457.22;4923512;29;19930;-96
2023/10/04 16:45:49;;;;;;;;;;;;;;;15.80;85.38;102456.06;4927898;29;19945;-96
2023/10/04 16:48:22;;;;;;;;;;;;;;;15.74;85.58;102467.31;4941471;29;19919;-96
2023/10/04 16:51:07;;;;;;;;;;;;;;;15.71;85.67;102467.19;4942617;28;19930;-96
2023/10/04 16:56:48;;;;;;;;;;;;;;;15.70;86.01;102461.88;4959517;29;20002;-96
2023/10/04 16:59:14;;;;;;;;;;;;;;;15.68;85.76;102461.84;4941783;29;19925;-96
2023/10/04 17:01:52;;;;;;;;;;;;;;;15.66;85.89;102463.56;4926688;29;19919;-96
2023/10/04 17:07:25;;;;;;;;;;;;;;;15.58;86.01;102462.44;4936243;29;19927;-96
2023/10/04 17:09:54;;;;;;;;;;;;;;;15.55;86.44;102486.88;4923465;29;19949;-96
2023/10/04 17:12:28;;;;;;;;;;;;;;;15.50;86.20;102475.34;4939016;29;19915;-96
2023/10/04 17:15:24;;;;;;;;;;;;;;;15.46;86.28;102481.34;4923379;29;19915;-96
2023/10/04 17:17:56;;;;;;;;;;;;;;;15.42;86.37;102480.34;4904341;29;19920;-96
2023/10/04 17:20:39;;;;;;;;;;;;;;;15.39;86.56;102480.28;4920049;29;19938;-96
2023/10/04 17:23:07;;;;;;;;;;;;;;;15.38;86.82;102481.13;4904315;29;19916;-96
2023/10/04 17:25:45;;;;;;;;;;;;;;;15.36;86.56;102482.81;4923954;29;19962;-96
2023/10/04 17:31:21;;;;;;;;;;;;;;;15.28;87.05;102490.47;4940060;29;19915;-96
2023/10/04 17:33:53;;;;;;;;;;;;;;;15.23;86.92;102488.53;4923306;29;19944;-96
2023/10/04 17:39:34;;;;;;;;;;;;;;;15.15;86.97;102484.78;4939395;29;19934;-96
2023/10/04 17:42:22;;;;;;;;;;;;;;;15.12;87.43;102496.09;4922710;29;19919;-96
2023/10/04 17:44:53;;;;;;;;;;;;;;;15.09;87.62;102490.72;4921875;29;19982;-96
2023/10/04 17:47:26;;;;;;;;;;;;;;;15.07;87.27;102498.56;4922974;29;19915;-96
2023/10/04 17:50:15;;;;;;;;;;;;;;;15.03;87.50;102501.91;4922145;29;19915;-96
2023/10/04 17:52:56;;;;;;;;;;;;;;;15.00;87.25;102500.94;4937913;29;19990;-96
2023/10/04 17:55:56;;;;;;;;;;;;;;;14.95;87.79;102504.31;4922151;29;19922;-96
2023/10/04 17:58:21;;;;;;;;;;;;;;;14.93;87.84;102508.63;4921774;29;19922;-96
2023/10/04 18:00:51;;;;;;;;;;;;;;;14.90;87.43;102494.50;4935223;29;19974;-96
2023/10/04 18:03:26;;;;;;;;;;;;;;;14.86;87.66;102492.63;4920365;29;20075;-96
2023/10/04 18:05:58;;;;;;;;;;;;;;;14.86;87.49;102495.25;4938036;29;19903;-96
2023/10/04 18:11:49;;;;;;;;;;;;;;;14.77;87.61;102491.50;4938648;29;19963;-96
2023/10/04 18:14:15;;;;;;;;;;;;;;;14.71;87.76;102488.66;4900957;29;19944;-96
2023/10/04 18:17:06;;;;;;;;;;;;;;;14.67;87.86;102485.88;4918619;29;19915;-96
2023/10/04 18:19:32;;;;;;;;;;;;;;;14.66;88.30;102489.38;4903200;29;19923;-96
2023/10/04 18:21:59;;;;;;;;;;;;;;;14.64;88.43;102488.41;4918518;29;19915;-96
2023/10/04 18:24:36;;;;;;;;;;;;;;;14.62;88.53;102488.34;4934598;29;19906;-96
2023/10/04 18:27:02;;;;;;;;;;;;;;;14.61;89.27;102486.53;4910095;29;19951;-96
2023/10/04 18:29:39;;;;;;;;;;;;;;;14.60;89.72;102485.66;4910012;29;19919;-96
2023/10/04 18:32:28;;;;;;;;;;;;;;;14.56;90.03;102480.25;4942204;29;20032;-96
2023/10/04 18:35:10;;;;;;;;;;;;;;;14.55;90.36;102486.34;4926089;29;19915;-96
2023/10/04 18:37:46;;;;;;;;;;;;;;;14.54;91.26;102481.91;4911709;29;19965;-96
2023/10/04 18:40:17;;;;;;;;;;;;;;;14.52;91.07;102478.38;4926514;29;19907;-96
2023/10/04 18:42:52;;;;;;;;;;;;;;;14.51;91.06;102476.56;4942715;29;19915;-96
2023/10/04 18:45:41;;;;;;;;;;;;;;;14.52;90.70;102474.00;4925000;29;19930;-96
2023/10/04 18:48:26;;;;;;;;;;;;;;;14.54;91.90;102480.22;4941492;29;19908;-96
2023/10/04 18:50:59;;;;;;;;;;;;;;;14.51;91.20;102471.31;4926643;29;19947;-96
2023/10/04 18:56:34;;;;;;;;;;;;;;;14.50;91.74;102466.94;4932007;29;19922;-96
2023/10/04 18:59:02;;;;;;;;;;;;;;;14.50;91.95;102474.81;4925108;29;20373;-96
2023/10/04 19:01:45;;;;;;;;;;;;;;;;;;;;;
2023/10/04 19:07:35;;;;;;;;;;;;;;;14.49;91.92;102470.41;4936013;29;19930;-96
2023/10/04 19:10:11;;;;;;;;;;;;;;;14.48;91.70;102474.72;4925348;29;19923;-96
2023/10/04 19:12:57;;;;;;;;;;;;;;;14.46;92.65;102463.31;4927692;29;19903;-96
2023/10/04 19:15:31;;;;;;;;;;;;;;;14.46;92.33;102465.94;4926247;29;19899;-96
2023/10/04 19:18:05;;;;;;;;;;;;;;;14.46;92.45;102465.06;4925219;29;19915;-96
2023/10/04 19:20:43;;;;;;;;;;;;;;;14.44;92.43;102462.38;4923568;29;19987;-96
2023/10/04 19:23:12;;;;;;;;;;;;;;;14.44;92.43;102457.13;4941554;29;19915;-96
2023/10/04 19:25:50;;;;;;;;;;;;;;;;;;;;;
2023/10/04 19:28:26;;;;;;;;;;;;;;;14.44;92.95;102465.88;4922224;29;19958;-96
2023/10/04 19:30:59;;;;;;;;;;;;;;;14.42;93.46;102461.41;4921863;29;19922;-96
2023/10/04 19:36:41;;;;;;;;;;;;;;;14.42;92.75;102464.03;4923301;29;19923;-96
2023/10/04 19:39:21;;;;;;;;;;;;;;;14.42;92.66;102464.97;4922327;29;19991;-96
2023/10/04 19:41:51;;;;;;;;;;;;;;;14.41;93.54;102463.16;4920735;29;19916;-96
2023/10/04 19:44:22;;;;;;;;;;;;;;;14.40;93.17;102463.13;4924898;29;19915;-96
2023/10/04 19:46:50;;;;;;;;;;;;;;;14.38;94.15;102452.56;4936726;29;19966;-96
2023/10/04 19:49:15;;;;;;;;;;;;;;;14.37;94.05;102448.16;4922661;29;19915;-96
2023/10/04 19:51:48;;;;;;;;;;;;;;;14.35;94.28;102435.81;4922677;29;20312;-96
2023/10/04 19:54:15;;;;;;;;;;;;;;;14.33;94.07;102438.41;4922317;29;19919;-96
2023/10/04 19:56:57;;;;;;;;;;;;;;;14.28;94.87;102442.63;4922802;29;19899;-96
2023/10/04 19:59:31;;;;;;;;;;;;;;;14.24;94.79;102438.09;4923123;29;19915;-96
2023/10/04 20:02:03;;;;;;;;;;;;;;;14.21;95.07;102436.25;4922256;29;19919;-96
2023/10/04 20:04:29;;;;;;;;;;;;;;;14.18;95.52;102444.03;4921675;29;19923;-96
2023/10/04 20:07:03;;;;;;;;;;;;;;;14.16;94.26;102436.94;4939194;29;19923;-96
2023/10/04 20:09:35;;;;;;;;;;;;;;;14.12;94.69;102432.41;4923157;29;19922;-96
2023/10/04 20:14:49;;;;;;;;;;;;;;;14.07;94.20;102427.91;4938724;29;19915;-96
2023/10/04 20:17:20;;;;;;;;;;;;;;;14.04;94.70;102430.44;4939374;29;19983;-96
2023/10/04 20:19:46;;;;;;;;;;;;;;;14.02;94.92;102426.88;4919448;29;19923;-96
2023/10/04 20:22:11;;;;;;;;;;;;;;;13.99;94.91;102426.78;4922506;29;19922;-97
2023/10/04 20:24:41;;;;;;;;;;;;;;;13.96;95.19;102420.50;4918873;29;20002;-96
2023/10/04 20:30:42;;;;;;;;;;;;;;;13.90;96.84;102422.09;4920434;29;19923;-96
2023/10/04 20:33:19;;;;;;;;;;;;;;;13.89;96.15;102424.66;4902434;29;19916;-96
2023/10/04 20:36:03;;;;;;;;;;;;;;;13.87;95.42;102424.59;4933740;29;19919;-96
2023/10/04 20:38:37;;;;;;;;;;;;;;;13.87;95.03;102415.84;4922189;29;19930;-96
2023/10/04 20:41:10;;;;;;;;;;;;;;;13.87;95.17;102421.09;4923193;29;19923;-96
2023/10/04 20:43:46;;;;;;;;;;;;;;;13.80;96.22;102420.00;4923550;29;20111;-96
2023/10/04 20:46:15;;;;;;;;;;;;;;;13.79;95.58;102414.66;4918509;29;19900;-96
2023/10/04 20:48:41;;;;;;;;;;;;;;;13.79;95.52;102414.66;4918963;29;19915;-96
2023/10/04 20:51:10;;;;;;;;;;;;;;;13.74;96.05;102423.28;4918497;29;19922;-96
2023/10/04 20:53:42;;;;;;;;;;;;;;;13.74;95.47;102425.00;4918719;29;19944;-96
2023/10/04 20:56:13;;;;;;;;;;;;;;;13.72;96.32;102426.69;4930971;29;19919;-96
2023/10/04 20:58:41;;;;;;;;;;;;;;;13.70;96.06;102429.25;4921957;29;19967;-96
2023/10/04 21:01:10;;;;;;;;;;;;;;;13.69;96.14;102430.06;4923122;29;19990;-96
2023/10/04 21:06:46;;;;;;;;;;;;;;;13.65;96.67;102428.16;4939175;29;19930;-96
2023/10/04 21:09:43;;;;;;;;;;;;;;;13.59;96.35;102425.34;4923375;29;19919;-96
2023/10/04 21:12:25;;;;;;;;;;;;;;;13.59;96.78;102425.34;4923508;29;19983;-96
2023/10/04 21:15:03;;;;;;;;;;;;;;;13.55;96.44;102423.44;4923098;29;19958;-96
2023/10/04 21:17:34;;;;;;;;;;;;;;;13.56;97.08;102420.88;4921539;29;19979;-96
2023/10/04 21:19:59;;;;;;;;;;;;;;;13.52;96.37;102412.84;4921954;29;19903;-96
2023/10/04 21:22:45;;;;;;;;;;;;;;;13.49;96.47;102412.75;4922337;29;19943;-96
2023/10/04 21:25:16;;;;;;;;;;;;;;;13.47;96.86;102410.06;4918113;29;19940;-96
2023/10/04 21:27:47;;;;;;;;;;;;;;;13.47;96.88;102404.84;4918620;29;19923;-96
2023/10/04 21:30:38;;;;;;;;;;;;;;;13.46;96.38;102402.16;4919861;29;19911;-96
2023/10/04 21:33:29;;;;;;;;;;;;;;;13.44;96.46;102399.50;4918870;29;19987;-96
2023/10/04 21:36:13;;;;;;;;;;;;;;;13.45;96.66;102400.38;4899446;29;19923;-96
2023/10/04 21:39:06;;;;;;;;;;;;;;;13.43;96.22;102399.44;4919757;29;19899;-96
2023/10/04 21:41:52;;;;;;;;;;;;;;;13.45;96.49;102398.63;4918168;29;19993;-96
2023/10/04 21:44:42;;;;;;;;;;;;;;;13.41;96.05;102386.25;4917191;29;19919;-96
2023/10/04 21:47:48;;;;;;;;;;;;;;;13.42;96.48;102384.53;4918656;29;19935;-96
2023/10/04 21:50:35;;;;;;;;;;;;;;;13.46;96.66;102386.44;4899502;29;19922;-96
2023/10/04 21:53:02;;;;;;;;;;;;;;;13.42;96.70;102381.94;4900522;29;19975;-96
2023/10/04 21:55:33;;;;;;;;;;;;;;;13.40;96.14;102374.03;4864716;29;19943;-96
2023/10/04 22:01:14;;;;;;;;;;;;;;;13.39;96.41;102373.09;4923085;29;19988;-96
2023/10/04 22:03:46;;;;;;;;;;;;;;;13.38;96.46;102367.81;4920918;29;19915;-96
2023/10/04 22:06:17;;;;;;;;;;;;;;;13.36;96.16;102370.38;4922051;29;19930;-96
2023/10/04 22:08:54;;;;;;;;;;;;;;;13.36;96.37;102370.38;4922017;29;19927;-96
2023/10/04 22:14:42;;;;;;;;;;;;;;;;;;;;;
2023/10/04 22:17:21;;;;;;;;;;;;;;;13.34;95.85;102361.59;4940368;29;21542;-96
2023/10/04 22:19:52;;;;;;;;;;;;;;;13.29;96.12;102362.22;4924660;29;19953;-96
2023/10/04 22:22:24;;;;;;;;;;;;;;;13.32;96.27;102363.22;4925254;29;19900;-96
2023/10/04 22:24:55;;;;;;;;;;;;;;;13.33;96.17;102359.75;4925833;29;19927;-96
2023/10/04 22:27:34;;;;;;;;;;;;;;;13.29;96.05;102354.38;4925640;29;19975;-96
2023/10/04 22:30:18;;;;;;;;;;;;;;;13.25;96.02;102350.72;4925121;29;19915;-96
2023/10/04 22:33:15;;;;;;;;;;;;;;;13.25;96.50;102345.50;4923467;29;19920;-96
2023/10/04 22:36:02;;;;;;;;;;;;;;;13.25;96.32;102339.38;4924682;29;19899;-96
2023/10/04 22:38:38;;;;;;;;;;;;;;;13.21;96.45;102328.81;4940015;29;19974;-96
2023/10/04 22:41:30;;;;;;;;;;;;;;;13.22;96.36;102333.22;4940868;29;19923;-96
2023/10/04 22:44:21;;;;;;;;;;;;;;;13.17;96.13;102328.63;4941496;29;19915;-96
2023/10/04 22:46:49;;;;;;;;;;;;;;;13.14;96.84;102321.56;4923799;29;19915;-96
2023/10/04 22:49:15;;;;;;;;;;;;;;;13.13;96.32;102319.78;4922185;29;20000;-96
2023/10/04 22:51:54;;;;;;;;;;;;;;;13.13;96.66;102313.66;4924192;29;19922;-96
2023/10/04 22:54:23;;;;;;;;;;;;;;;13.08;96.71;102316.09;4923443;29;19899;-96
2023/10/04 22:56:52;;;;;;;;;;;;;;;13.07;96.87;102324.78;4924708;29;19985;-96
2023/10/04 22:59:22;;;;;;;;;;;;;;;13.03;96.57;102315.03;4923970;29;19933;-96
2023/10/04 23:01:54;;;;;;;;;;;;;;;13.02;96.77;102310.63;4908901;29;19919;-96
2023/10/04 23:04:41;;;;;;;;;;;;;;;12.98;96.65;102308.75;4924426;29;19963;-96
2023/10/04 23:07:13;;;;;;;;;;;;;;;12.95;96.72;102314.75;4922707;29;19918;-96
2023/10/04 23:10:00;;;;;;;;;;;;;;;12.94;97.16;102306.84;4924033;29;19899;-96
2023/10/04 23:12:32;;;;;;;;;;;;;;;12.91;96.80;102305.00;4939748;29;19915;-96
2023/10/04 23:15:28;;;;;;;;;;;;;;;12.88;97.11;102307.50;4913437;29;20060;-96
2023/10/04 23:18:34;;;;;;;;;;;;;;;12.87;97.16;102300.50;4924167;29;19922;-96
2023/10/04 23:21:12;;;;;;;;;;;;;;;12.83;97.01;102304.72;4924765;29;19907;-96
2023/10/04 23:24:08;;;;;;;;;;;;;;;12.82;97.00;102297.72;4923366;29;19899;-96
2023/10/04 23:26:38;;;;;;;;;;;;;;;12.80;97.72;102293.25;4926225;29;19910;-96
2023/10/04 23:29:08;;;;;;;;;;;;;;;12.76;97.52;102276.56;4924311;29;19925;-96
2023/10/04 23:31:42;;;;;;;;;;;;;;;12.72;97.97;102277.28;4923787;29;20388;-96
2023/10/04 23:34:23;;;;;;;;;;;;;;;12.67;98.23;102270.97;4923680;29;19915;-96
2023/10/04 23:37:08;;;;;;;;;;;;;;;12.65;97.56;102270.03;4924731;29;19942;-96
2023/10/04 23:39:50;;;;;;;;;;;;;;;12.64;97.62;102274.38;4924686;29;19926;-96
2023/10/04 23:42:19;;;;;;;;;;;;;;;12.65;97.92;102278.75;4941360;29;19923;-96
2023/10/04 23:44:56;;;;;;;;;;;;;;;12.63;97.66;102276.91;4940155;29;19937;-96
2023/10/04 23:47:28;;;;;;;;;;;;;;;12.63;97.97;102274.28;4923688;29;19939;-96
2023/10/04 23:50:05;;;;;;;;;;;;;;;12.60;98.23;102272.47;4922761;29;19931;-96
2023/10/04 23:52:36;;;;;;;;;;;;;;;12.61;98.20;102273.34;4921224;29;19915;-96
2023/10/04 23:55:20;;;;;;;;;;;;;;;12.61;98.51;102275.97;4923578;29;19916;-96
2023/10/04 23:58:13;;;;;;;;;;;;;;;12.59;98.13;102275.91;4922159;29;19919;-96
